Time;durP1;ratioP1;P1;durP2;ratioP2;P2;SDS_P1;SDS_P2;PMS_P1;PMS_P2;Temp;Humidity;BMP_temperature;BMP_pressure;BME280_temperature;BME280_humidity;BME280_pressure;Samples;Min_cycle;Max_cycle;Signal;HPM_P1;HPM_P2
2021/05/25 00:01:58;;;;;;;8.73;2.20;;;;;;;15.60;60.41;100057.41;3429893;84;27793;-89
2021/05/25 00:06:59;;;;;;;6.33;2.30;;;;;;;15.55;60.83;100050.17;3417155;84;98811;-89
2021/05/25 00:12:00;;;;;;;5.35;2.02;;;;;;;15.48;61.52;100047.52;3434052;84;25794;-88
2021/05/25 00:17:02;;;;;;;5.90;2.10;;;;;;;15.41;62.71;100039.28;3427076;83;98776;-90
2021/05/25 00:22:03;;;;;;;7.00;1.97;;;;;;;15.35;63.03;100047.88;3427608;84;26500;-90
2021/05/25 00:27:05;;;;;;;4.88;1.68;;;;;;;15.30;63.48;100046.34;3427229;84;99192;-92
2021/05/25 00:32:06;;;;;;;4.13;1.53;;;;;;;15.25;64.45;100050.97;3434921;84;26423;-90
2021/05/25 00:37:07;;;;;;;4.70;2.13;;;;;;;15.19;64.51;100042.94;3422712;84;98683;-88
2021/05/25 00:42:08;;;;;;;4.60;1.63;;;;;;;15.16;65.55;100041.60;3428605;84;26628;-89
2021/05/25 00:47:08;;;;;;;4.67;1.90;;;;;;;15.13;65.26;100029.95;3418165;84;98886;-89
2021/05/25 00:52:09;;;;;;;4.20;1.90;;;;;;;15.06;65.96;100021.15;3436243;84;25758;-91
2021/05/25 00:57:10;;;;;;;4.93;1.80;;;;;;;15.05;65.71;100014.63;3428919;84;99195;-89
2021/05/25 01:02:10;;;;;;;3.13;1.70;;;;;;;15.01;66.26;100006.37;3426620;84;33225;-91
2021/05/25 01:07:12;;;;;;;2.70;1.30;;;;;;;14.94;66.97;100005.06;3418234;84;98803;-91
2021/05/25 01:12:13;;;;;;;6.97;2.00;;;;;;;14.93;66.58;99998.57;3435456;84;34350;-88
2021/05/25 01:17:13;;;;;;;3.67;1.83;;;;;;;14.89;66.86;99976.42;3413397;84;99352;-89
2021/05/25 01:22:14;;;;;;;3.30;1.80;;;;;;;14.85;67.02;99979.06;3435377;84;33252;-88
2021/05/25 01:27:15;;;;;;;4.00;1.80;;;;;;;14.79;67.52;99973.22;3424745;84;98813;-91
2021/05/25 01:32:16;;;;;;;4.77;1.60;;;;;;;14.75;67.51;99973.06;3432162;84;33441;-91
2021/05/25 01:37:17;;;;;;;3.70;1.65;;;;;;;14.74;67.61;99967.34;3424968;84;99603;-88
2021/05/25 01:42:18;;;;;;;3.53;1.87;;;;;;;14.73;68.00;99969.94;3428671;84;25812;-90
2021/05/25 01:47:18;;;;;;;3.65;1.92;;;;;;;14.66;68.77;99974.19;3426815;84;98970;-92
2021/05/25 01:52:20;;;;;;;2.83;1.50;;;;;;;14.59;69.14;99975.05;3433056;84;32256;-91
2021/05/25 01:57:21;;;;;;;4.72;1.85;;;;;;;14.56;68.81;99973.09;3431672;83;98917;-90
2021/05/25 02:02:21;;;;;;;5.17;2.17;;;;;;;14.53;69.08;99973.14;3429291;84;31616;-91
2021/05/25 02:07:22;;;;;;;6.37;2.47;;;;;;;14.47;69.48;99964.52;3429625;84;98690;-88
2021/05/25 02:12:23;;;;;;;5.07;2.20;;;;;;;14.44;70.74;99955.65;3420208;84;31683;-90
2021/05/25 02:17:27;;;;;;;3.52;1.60;;;;;;;14.37;70.00;99961.28;3427682;84;99330;-90
2021/05/25 02:22:28;;;;;;;4.75;2.10;;;;;;;14.35;70.16;99950.43;3433335;84;32247;-92
2021/05/25 02:27:29;;;;;;;5.27;2.30;;;;;;;14.33;70.26;99955.61;3430285;84;98784;-91
2021/05/25 02:32:30;;;;;;;4.47;2.20;;;;;;;14.32;70.68;99940.17;3428509;84;25731;-88
2021/05/25 02:37:31;;;;;;;6.63;2.77;;;;;;;14.30;70.91;99921.82;3421090;84;99032;-89
2021/05/25 02:42:32;;;;;;;4.70;2.00;;;;;;;14.25;71.97;99929.98;3421501;84;25942;-90
2021/05/25 02:47:34;;;;;;;5.17;2.20;;;;;;;14.22;71.84;99931.42;3421253;84;99182;-91
2021/05/25 02:52:38;;;;;;;5.47;2.23;;;;;;;14.19;71.75;99920.58;3422776;84;34831;-91
2021/05/25 02:57:40;;;;;;;3.67;2.00;;;;;;;14.18;71.98;99920.33;3424520;84;99034;-91
2021/05/25 03:02:41;;;;;;;4.85;2.17;;;;;;;14.17;72.09;99921.53;3424268;84;31672;-92
2021/05/25 03:07:43;;;;;;;5.03;2.10;;;;;;;14.14;72.25;99923.77;3421116;84;98858;-90
2021/05/25 03:12:44;;;;;;;4.33;1.70;;;;;;;13.93;73.25;99901.86;3412848;85;31647;-90
2021/05/25 03:17:45;;;;;;;5.12;2.20;;;;;;;13.93;73.25;99901.86;3414447;85;98855;-92
2021/05/25 03:22:46;;;;;;;5.10;2.70;;;;;;;14.02;73.75;99914.58;3417340;86;25976;-90
2021/05/25 03:27:48;;;;;;;5.47;2.67;;;;;;;13.97;74.08;99921.98;3406270;86;98839;-89
2021/05/25 03:32:50;;;;;;;4.90;2.40;;;;;;;13.86;74.73;99919.13;3421065;86;25874;-89
2021/05/25 03:37:52;;;;;;;5.35;2.75;;;;;;;13.83;75.14;99929.03;3401744;84;98756;-91
2021/05/25 03:42:54;;;;;;;6.95;2.60;;;;;;;13.82;75.24;99935.77;3415617;86;32135;-92
2021/05/25 03:47:55;;;;;;;5.47;2.67;;;;;;;13.81;75.68;99932.81;3419897;84;98751;-89
2021/05/25 03:52:56;;;;;;;6.77;3.63;;;;;;;13.80;76.30;99933.22;3421802;85;26869;-90
2021/05/25 04:03:17;;;;;;;5.12;2.70;;;;;;;13.70;77.10;99917.50;3422638;86;33037;-91
2021/05/25 04:08:18;;;;;;;6.72;3.50;;;;;;;13.70;77.44;99931.33;3429215;86;98911;-91
2021/05/25 04:13:18;;;;;;;7.90;4.20;;;;;;;13.69;77.78;99936.69;3431331;84;25868;-89
2021/05/25 04:18:19;;;;;;;11.83;3.80;;;;;;;13.66;78.82;99935.52;3428099;84;98724;-89
2021/05/25 04:23:21;;;;;;;7.33;3.83;;;;;;;13.66;78.51;99932.75;3435262;84;34977;-89
2021/05/25 04:28:22;;;;;;;6.47;3.87;;;;;;;13.67;78.89;99926.61;3425823;84;98859;-86
2021/05/25 04:33:23;;;;;;;10.13;4.60;;;;;;;13.66;79.18;99928.61;3439489;84;34865;-89
2021/05/25 04:38:24;;;;;;;7.10;4.40;;;;;;;13.65;78.90;99917.36;3441463;84;98577;-88
2021/05/25 04:43:24;;;;;;;7.13;3.97;;;;;;;13.65;79.10;99931.19;3439325;84;35363;-90
2021/05/25 04:48:25;;;;;;;8.73;5.10;;;;;;;13.67;79.82;99923.84;3428680;84;98763;-90
2021/05/25 04:53:26;;;;;;;7.47;4.53;;;;;;;13.67;80.66;99934.32;3441937;84;25873;-89
2021/05/25 04:58:27;;;;;;;7.42;4.10;;;;;;;13.77;79.89;99928.49;3423686;84;98594;-87
2021/05/25 05:03:27;;;;;;;6.37;3.40;;;;;;;13.90;80.10;99932.33;3439543;84;27781;-89
2021/05/25 05:08:28;;;;;;;7.27;3.97;;;;;;;14.07;79.87;99943.19;3437533;82;98707;-86
2021/05/25 05:13:29;;;;;;;6.87;4.07;;;;;;;14.24;79.62;99951.16;3435441;84;26149;-91
2021/05/25 05:18:30;;;;;;;7.93;3.70;;;;;;;14.46;79.34;99948.31;3431100;84;98728;-88
2021/05/25 05:23:30;;;;;;;8.40;4.43;;;;;;;14.83;78.57;99946.23;3442670;84;29538;-91
2021/05/25 05:28:31;;;;;;;7.22;3.72;;;;;;;15.17;77.86;99941.40;3431807;84;98475;-90
2021/05/25 05:33:32;;;;;;;7.67;3.97;;;;;;;15.58;77.03;99944.71;3439537;84;30704;-90
2021/05/25 05:38:33;;;;;;;6.17;3.40;;;;;;;15.92;75.72;99957.78;3437500;83;98733;-90
2021/05/25 05:43:34;;;;;;;7.40;2.90;;;;;;;16.40;74.18;99954.54;3442287;84;28094;-89
2021/05/25 05:48:35;;;;;;;8.05;2.67;;;;;;;17.01;73.92;99950.05;3432277;84;98778;-90
2021/05/25 05:53:36;;;;;;;4.80;1.90;;;;;;;17.52;70.78;99943.08;3435468;84;31245;-90
2021/05/25 05:58:37;;;;;;;5.78;2.10;;;;;;;18.08;69.71;99944.99;3433577;83;98548;-90
2021/05/25 06:03:38;;;;;;;4.60;2.10;;;;;;;18.52;65.95;99949.15;3433303;84;28695;-90
2021/05/25 06:08:40;;;;;;;5.53;2.20;;;;;;;18.64;66.25;99942.05;3430575;84;98787;-88
2021/05/25 06:13:42;;;;;;;5.47;2.70;;;;;;;19.25;65.32;99940.59;3437114;84;29687;-87
2021/05/25 06:18:42;;;;;;;4.83;2.70;;;;;;;19.81;63.80;99942.11;3431496;84;98437;-90
2021/05/25 06:23:43;;;;;;;5.00;2.40;;;;;;;20.19;62.81;99949.17;3435745;84;29638;-85
2021/05/25 06:28:44;;;;;;;5.15;2.50;;;;;;;20.39;61.21;99960.05;3426317;84;98694;-83
2021/05/25 06:33:44;;;;;;;5.55;2.65;;;;;;;20.37;60.22;99965.28;3440930;84;26378;-84
2021/05/25 06:38:45;;;;;;;5.77;2.83;;;;;;;20.43;59.67;99977.47;3425071;84;98798;-84
2021/05/25 06:43:46;;;;;;;5.80;2.40;;;;;;;20.57;59.40;99973.54;3437668;84;25926;-83
2021/05/25 06:48:46;;;;;;;5.37;2.45;;;;;;;20.79;58.37;99964.52;3425875;84;98482;-83
2021/05/25 06:53:47;;;;;;;5.70;2.37;;;;;;;21.28;57.62;99970.23;3443389;84;25740;-84
2021/05/25 06:58:48;;;;;;;4.40;2.22;;;;;;;21.53;57.05;99953.98;3431867;84;98845;-83
2021/05/25 07:03:51;;;;;;;6.53;2.27;;;;;;;21.64;55.28;99976.73;3437226;84;30550;-84
2021/05/25 07:08:51;;;;;;;8.30;2.57;;;;;;;21.69;56.06;99985.20;3432310;84;98738;-84
2021/05/25 07:13:52;;;;;;;7.27;2.37;;;;;;;21.49;55.79;99984.78;3435729;84;26467;-85
2021/05/25 07:18:53;;;;;;;4.07;1.77;;;;;;;21.32;55.63;99993.27;3418746;82;98850;-84
2021/05/25 07:23:54;;;;;;;5.70;2.08;;;;;;;21.21;55.97;99997.87;3486583;83;33193;-83
2021/05/25 07:28:55;;;;;;;7.08;2.20;;;;;;;21.06;55.62;99996.88;3473762;82;98495;-85
2021/05/25 07:33:56;;;;;;;3.23;1.50;;;;;;;20.87;55.93;99993.01;3482160;83;32449;-82
2021/05/25 07:38:57;;;;;;;5.43;1.23;;;;;;;20.39;55.13;100000.57;3487929;82;98787;-85
2021/05/25 07:43:58;;;;;;;4.07;1.60;;;;;;;19.85;54.46;100005.01;3484519;83;29528;-85
2021/05/25 07:48:59;;;;;;;2.37;1.10;;;;;;;19.39;54.95;100015.47;3473552;83;98959;-83
2021/05/25 07:54:00;;;;;;;6.80;2.60;;;;;;;19.06;55.21;100025.83;3485294;83;26333;-83
2021/05/25 07:59:00;;;;;;;7.40;2.43;;;;;;;18.96;55.56;100033.92;3480168;82;98883;-85
2021/05/25 08:04:02;;;;;;;5.63;1.93;;;;;;;18.74;55.44;100029.55;3488406;83;32240;-83
2021/05/25 08:09:04;;;;;;;8.35;2.25;;;;;;;18.43;56.88;100019.30;3484514;82;98965;-81
2021/05/25 08:14:07;;;;;;;7.58;2.22;;;;;;;18.22;57.03;100031.77;3493586;81;31817;-81
2021/05/25 08:19:16;;;;;;;5.80;2.10;;;;;;;17.86;56.93;100035.27;3535543;81;98669;-84
2021/05/25 08:24:13;;;;;;;4.37;1.37;;;;;;;17.84;57.27;100051.63;3536610;81;25815;-82
2021/05/25 08:29:14;;;;;;;4.80;1.10;;;;;;;17.56;56.90;100055.06;3534430;81;98971;-83
2021/05/25 08:34:15;;;;;;;5.65;1.70;;;;;;;17.38;57.72;100062.23;3533798;81;29492;-83
2021/05/25 08:39:16;;;;;;;4.67;2.27;;;;;;;17.24;58.54;100073.66;3535823;81;99007;-84
2021/05/25 08:44:16;;;;;;;7.53;2.35;;;;;;;17.12;59.75;100090.38;3556293;81;25681;-82
2021/05/25 08:49:19;;;;;;;4.50;1.30;;;;;;;17.00;60.15;100091.66;3547539;81;98642;-81
2021/05/25 08:54:21;;;;;;;6.30;1.60;;;;;;;16.93;60.49;100087.61;3550488;81;26913;-84
2021/05/25 08:59:21;;;;;;;6.03;1.40;;;;;;;16.84;60.86;100089.57;3508102;81;98787;-82
2021/05/25 09:04:22;;;;;;;3.97;1.50;;;;;;;16.88;61.52;100092.28;3541390;81;29840;-83
2021/05/25 09:09:24;;;;;;;4.97;1.90;;;;;;;16.82;62.03;100093.39;3533237;81;98684;-83
2021/05/25 09:14:27;;;;;;;3.83;1.62;;;;;;;16.78;62.92;100101.63;3541431;81;26989;-82
2021/05/25 09:19:46;;;;;;;4.50;1.10;;;;;;;16.56;63.05;100110.19;3541215;81;98348;-82
2021/05/25 09:24:47;;;;;;;1.72;0.90;;;;;;;16.30;62.05;100130.45;3537574;81;98755;-82
2021/05/25 09:29:49;;;;;;;4.07;1.00;;;;;;;15.96;62.15;100147.86;3538534;81;25988;-82
2021/05/25 09:34:55;;;;;;;5.87;1.30;;;;;;;15.75;62.53;100151.71;3539607;81;98871;-83
2021/05/25 09:39:56;;;;;;;;;;;;;;;15.44;62.47;100157.11;3547202;81;25759;-85
2021/05/25 09:45:01;;;;;;;3.23;1.00;;;;;;;15.28;63.10;100171.34;3534197;81;84972;-82
2021/05/25 09:50:05;;;;;;;2.52;1.20;;;;;;;15.01;62.78;100160.18;3538468;81;31669;-81
2021/05/25 09:55:11;;;;;;;2.83;1.02;;;;;;;14.83;62.42;100163.72;3544472;81;99156;-81
2021/05/25 10:00:35;;;;;;;3.55;1.07;;;;;;;14.80;63.27;100175.64;3537227;81;26162;-79
2021/05/25 10:05:37;;;;;;;6.15;1.62;;;;;;;14.57;61.97;100178.24;3536410;81;99016;-82
2021/05/25 10:10:39;;;;;;;8.55;3.00;;;;;;;14.46;62.00;100183.09;3545881;81;31660;-83
2021/05/25 10:15:48;;;;;;;6.62;2.15;;;;;;;14.37;61.80;100188.30;3535150;81;99142;-82
2021/05/25 10:20:50;;;;;;;5.35;1.92;;;;;;;14.26;62.90;100162.69;3531465;81;32818;-83
2021/05/25 10:25:53;;;;;;;10.37;3.10;;;;;;;14.30;63.12;100165.41;3538113;81;99078;-83
2021/05/25 10:30:57;;;;;;;6.42;1.77;;;;;;;14.24;63.63;100174.77;3542431;81;32213;-83
2021/05/25 10:36:08;;;;;;;4.25;1.45;;;;;;;14.21;64.47;100162.31;3536492;81;98720;-82
2021/05/25 10:41:23;;;;;;;4.83;1.77;;;;;;;13.93;64.43;100116.27;3536724;81;32285;-82
2021/05/25 10:46:26;;;;;;;11.73;3.72;;;;;;;14.15;64.85;100162.53;3532560;81;99079;-82
2021/05/25 10:51:54;;;;;;;29.60;8.83;;;;;;;14.25;65.26;100136.20;3547389;81;31710;-82
2021/05/25 10:56:55;;;;;;;14.03;4.00;;;;;;;14.28;65.15;100155.36;3532371;81;99678;-81
2021/05/25 11:01:59;;;;;;;5.43;1.77;;;;;;;14.31;65.28;100154.53;3538241;81;26673;-82
2021/05/25 11:07:01;;;;;;;5.15;1.55;;;;;;;14.42;65.93;100158.79;3534167;80;98689;-81
2021/05/25 11:12:16;;;;;;;3.30;1.40;;;;;;;14.49;66.13;100180.87;3536938;81;32301;-83
2021/05/25 11:17:33;;;;;;;4.17;1.57;;;;;;;14.67;66.68;100181.48;3495502;81;99150;-81
2021/05/25 11:22:37;;;;;;;4.00;1.40;;;;;;;14.75;66.76;100199.63;3499867;83;31650;-82
2021/05/25 11:27:48;;;;;;;4.62;1.60;;;;;;;14.80;66.90;100196.42;3487324;82;98951;-81
2021/05/25 11:32:52;;;;;;;3.67;1.45;;;;;;;14.87;66.35;100202.50;3480099;83;31917;-82
2021/05/25 11:37:59;;;;;;;2.83;1.40;;;;;;;14.94;66.06;100196.87;3464199;83;98916;-82
2021/05/25 11:43:00;;;;;;;4.72;1.72;;;;;;;15.08;65.93;100191.97;3475451;83;26683;-84
2021/05/25 11:48:04;;;;;;;3.47;1.90;;;;;;;15.39;65.63;100178.38;3478263;82;99014;-82
2021/05/25 11:53:04;;;;;;;4.00;1.82;;;;;;;15.72;65.06;100173.97;3490855;83;31661;-83
2021/05/25 11:58:05;;;;;;;3.83;1.90;;;;;;;16.07;64.69;100151.27;3474964;83;98941;-82
2021/05/25 12:03:11;;;;;;;7.70;1.95;;;;;;;16.34;63.64;100156.15;3485083;83;32162;-86
2021/05/25 12:08:12;;;;;;;8.40;1.62;;;;;;;16.47;62.53;100157.17;3478448;82;98862;-82
2021/05/25 12:13:23;;;;;;;4.47;1.37;;;;;;;16.60;62.83;100174.20;3486754;83;28971;-82
2021/05/25 12:18:27;;;;;;;4.83;1.47;;;;;;;16.77;62.16;100161.98;3474016;82;98911;-84
2021/05/25 12:23:29;;;;;;;2.90;1.47;;;;;;;16.90;61.53;100154.58;3480275;83;31679;-84
2021/05/25 12:28:34;;;;;;;3.50;1.42;;;;;;;17.04;61.10;100145.97;3477445;83;98648;-83
2021/05/25 12:33:37;;;;;;;3.33;1.57;;;;;;;17.19;60.34;100161.17;3482705;83;31671;-86
2021/05/25 12:38:38;;;;;;;3.05;1.60;;;;;;;17.17;57.79;100169.77;3476411;82;98852;-82
2021/05/25 12:43:38;;;;;;;4.00;1.47;;;;;;;17.04;57.67;100161.86;3489707;83;29935;-82
2021/05/25 12:48:42;;;;;;;3.98;1.42;;;;;;;17.35;57.98;100166.02;3480036;82;98976;-83
2021/05/25 12:53:56;;;;;;;2.90;1.30;;;;;;;17.68;56.30;100160.17;3485387;83;31654;-83
2021/05/25 12:58:57;;;;;;;5.33;1.57;;;;;;;17.80;55.13;100164.27;3483695;82;98965;-87
2021/05/25 13:04:10;;;;;;;3.23;1.10;;;;;;;17.88;54.42;100162.28;3491710;83;29889;-82
2021/05/25 13:09:18;;;;;;;4.22;1.12;;;;;;;17.96;52.34;100159.52;3480482;82;98994;-85
2021/05/25 13:14:19;;;;;;;4.22;1.20;;;;;;;18.06;51.93;100167.45;3486457;83;31697;-83
2021/05/25 13:19:36;;;;;;;4.55;1.10;;;;;;;18.22;50.11;100174.42;3528333;81;98795;-83
2021/05/25 13:25:01;;;;;;;2.93;0.73;;;;;;;18.30;50.17;100164.66;3541251;81;99376;-85
2021/05/25 13:30:09;;;;;;;2.20;0.87;;;;;;;18.27;47.95;100173.31;3539426;81;26585;-82
2021/05/25 13:35:11;;;;;;;3.67;0.90;;;;;;;18.22;48.25;100164.68;3540196;81;98995;-86
2021/05/25 13:40:14;;;;;;;3.58;0.78;;;;;;;18.21;48.00;100172.87;3546110;81;33079;-83
2021/05/25 13:45:15;;;;;;;1.95;0.85;;;;;;;18.21;47.07;100172.23;3536793;81;98724;-85
2021/05/25 13:50:27;;;;;;;4.62;0.90;;;;;;;18.26;46.35;100175.14;3545431;81;31650;-85
2021/05/25 13:55:29;;;;;;;2.15;1.05;;;;;;;18.31;47.14;100183.73;3550415;81;98775;-85
2021/05/25 14:00:51;;;;;;;3.55;0.70;;;;;;;18.28;47.27;100191.59;3537741;81;31629;-83
2021/05/25 14:05:33;;;;;;;3.98;1.20;;;;;;;18.33;47.52;100190.31;3532069;81;98952;-84
2021/05/25 14:10:36;;;;;;;4.00;0.72;;;;;;;18.23;46.84;100186.53;3540838;81;29866;-85
2021/05/25 14:15:37;;;;;;;3.37;0.65;;;;;;;18.13;46.50;100193.73;3534814;81;99072;-83
2021/05/25 14:20:39;;;;;;;10.68;1.27;;;;;;;17.90;46.47;100185.52;3533696;81;31789;-83
2021/05/25 14:25:41;;;;;;;2.08;0.65;;;;;;;17.80;46.94;100197.67;3542659;81;99274;-82
2021/05/25 14:30:43;;;;;;;4.90;0.93;;;;;;;17.79;46.03;100182.98;3539271;81;32285;-84
2021/05/25 14:35:46;;;;;;;1.60;0.85;;;;;;;17.85;45.42;100181.85;3546910;81;98917;-85
2021/05/25 14:40:47;;;;;;;1.87;0.60;;;;;;;17.82;45.46;100177.16;3543746;81;31635;-82
2021/05/25 14:45:49;;;;;;;4.07;0.87;;;;;;;17.80;44.91;100175.40;3538031;81;99167;-87
2021/05/25 14:50:50;;;;;;;2.85;0.82;;;;;;;17.76;44.99;100182.44;3547139;81;32416;-83
2021/05/25 14:56:13;;;;;;;3.27;0.85;;;;;;;17.77;44.99;100181.22;3527343;81;99238;-90
2021/05/25 15:00:58;;;;;;;1.20;0.47;;;;;;;17.76;44.24;100183.83;3544708;81;25714;-82
2021/05/25 15:06:26;;;;;;;2.00;0.80;;;;;;;17.68;43.39;100184.42;3532257;81;99212;-87
2021/05/25 15:11:05;;;;;;;4.05;0.80;;;;;;;17.60;43.16;100189.97;3538923;81;25866;-84
2021/05/25 15:16:10;;;;;;;2.70;0.50;;;;;;;17.64;43.02;100182.31;3536393;81;99355;-86
2021/05/25 15:21:11;;;;;;;1.32;0.62;;;;;;;17.79;43.17;100188.55;3548360;81;31719;-89
2021/05/25 15:26:12;;;;;;;4.03;0.77;;;;;;;17.73;41.64;100168.01;3537313;81;98937;-84
2021/05/25 15:31:13;;;;;;;2.30;1.12;;;;;;;17.62;42.58;100151.36;3543240;81;30387;-85
2021/05/25 15:36:15;;;;;;;3.43;0.53;;;;;;;17.62;42.58;100151.36;3538139;81;98784;-86
2021/05/25 15:41:16;;;;;;;2.83;0.67;;;;;;;17.60;42.79;100181.00;3543632;81;30411;-86
2021/05/25 15:46:18;;;;;;;2.22;0.65;;;;;;;17.43;42.07;100179.37;3541888;81;99140;-91
2021/05/25 15:51:19;;;;;;;3.20;1.00;;;;;;;17.32;42.14;100168.25;3540828;81;31637;-87
2021/05/25 15:56:20;;;;;;;4.53;1.03;;;;;;;17.24;42.24;100164.05;3536602;81;99144;-87
2021/05/25 16:01:21;;;;;;;3.67;1.43;;;;;;;17.14;42.51;100156.11;3545717;81;30338;-86
2021/05/25 16:06:23;;;;;;;2.70;1.00;;;;;;;17.13;43.12;100136.47;3533756;81;99008;-86
2021/05/25 16:11:23;;;;;;;3.97;1.20;;;;;;;17.24;43.46;100142.59;3542437;81;28083;-85
2021/05/25 16:16:24;;;;;;;3.00;0.70;;;;;;;17.29;43.48;100128.78;3541164;81;98915;-88
2021/05/25 16:21:27;;;;;;;4.93;1.10;;;;;;;17.25;42.73;100126.09;3534581;81;26824;-87
2021/05/25 16:26:27;;;;;;;1.80;0.77;;;;;;;17.10;42.65;100124.00;3532597;81;98854;-85
2021/05/25 16:31:30;;;;;;;1.43;0.60;;;;;;;16.99;42.51;100124.82;3551087;81;27896;-84
2021/05/25 16:36:31;;;;;;;3.85;1.30;;;;;;;16.82;42.47;100129.53;3546764;81;99540;-86
2021/05/25 16:41:32;;;;;;;3.10;1.17;;;;;;;16.77;42.67;100132.80;3535795;81;27893;-85
2021/05/25 16:46:33;;;;;;;4.37;1.00;;;;;;;16.78;43.28;100145.48;3528900;81;99068;-88
2021/05/25 16:51:34;;;;;;;3.70;2.08;;;;;;;16.73;43.23;100145.97;3530134;81;25770;-87
2021/05/25 16:56:35;;;;;;;2.07;0.90;;;;;;;16.68;43.15;100152.01;3537235;81;99053;-88
2021/05/25 17:01:47;;;;;;;3.12;1.35;;;;;;;16.54;43.64;100139.78;3546667;81;29453;-87
2021/05/25 17:22:18;;;;;;;5.58;1.50;;;;;;;15.91;44.89;100162.98;3546825;81;32211;-86
2021/05/25 17:27:19;;;;;;;8.60;1.37;;;;;;;15.81;45.13;100169.47;3539814;81;99698;-88
2021/05/25 17:32:20;;;;;;;6.47;1.73;;;;;;;15.68;46.05;100180.95;3538381;81;27914;-85
2021/05/25 17:37:21;;;;;;;6.65;1.57;;;;;;;15.45;47.32;100182.84;3531131;81;98966;-87
2021/05/25 17:42:22;;;;;;;7.47;1.10;;;;;;;15.30;48.10;100175.86;3535862;81;26311;-86
2021/05/25 17:47:23;;;;;;;4.27;0.87;;;;;;;15.24;48.86;100171.98;3522338;81;98748;-86
2021/05/25 17:52:24;;;;;;;3.10;1.10;;;;;;;15.20;49.60;100167.86;3530133;81;26355;-90
2021/05/25 17:57:26;;;;;;;8.87;1.40;;;;;;;15.05;50.12;100172.61;3538613;81;99473;-88
2021/05/25 18:02:26;;;;;;;4.73;1.37;;;;;;;14.89;50.21;100180.08;3542699;81;27191;-86
2021/05/25 18:07:38;;;;;;;6.60;2.07;;;;;;;14.72;50.60;100183.05;3531942;81;98733;-86
2021/05/25 18:12:30;;;;;;;3.47;1.07;;;;;;;14.27;50.92;100162.86;3541073;81;25717;-87
2021/05/25 18:17:31;;;;;;;4.30;1.30;;;;;;;14.27;50.92;100162.86;3537595;81;99158;-85
2021/05/25 18:22:32;;;;;;;4.40;1.33;;;;;;;14.23;51.29;100187.01;3545604;81;34885;-85
2021/05/25 18:27:33;;;;;;;5.53;1.80;;;;;;;14.12;51.51;100182.73;3536489;81;99451;-86
2021/05/25 18:32:45;;;;;;;3.90;1.50;;;;;;;13.99;51.94;100205.94;3529240;81;34817;-86
2021/05/25 18:38:12;;;;;;;5.60;1.70;;;;;;;13.90;52.97;100233.25;3530831;81;99109;-84
2021/05/25 18:42:56;;;;;;;5.08;1.35;;;;;;;13.76;54.72;100247.76;3535779;81;31763;-81
2021/05/25 18:47:57;;;;;;;2.90;0.80;;;;;;;13.43;56.24;100242.18;3527194;81;98904;-79
2021/05/25 18:52:58;;;;;;;2.03;0.60;;;;;;;13.32;57.06;100271.03;3539551;81;26801;-79
2021/05/25 18:58:04;;;;;;;2.90;0.60;;;;;;;13.07;59.62;100273.84;3537752;81;99021;-84
2021/05/25 19:03:04;;;;;;;2.62;0.70;;;;;;;12.52;62.00;100240.91;3546142;81;32875;-84
2021/05/25 19:08:06;;;;;;;2.23;1.07;;;;;;;12.52;62.00;100240.91;3547587;81;98524;-86
2021/05/25 19:13:07;;;;;;;6.60;1.77;;;;;;;12.51;63.53;100257.28;3547962;81;31924;-83
2021/05/25 19:18:11;;;;;;;3.50;0.90;;;;;;;12.36;64.50;100259.83;3540909;81;98788;-84
2021/05/25 19:23:21;;;;;;;3.52;0.98;;;;;;;12.30;64.99;100258.64;3547052;81;32312;-84
2021/05/25 19:28:19;;;;;;;2.72;0.95;;;;;;;12.27;65.36;100257.26;3538888;81;99292;-82
2021/05/25 19:33:20;;;;;;;3.63;0.70;;;;;;;12.21;65.30;100258.83;3541964;81;26100;-83
2021/05/25 19:38:21;;;;;;;2.93;1.53;;;;;;;12.11;65.85;100269.25;3544644;81;98763;-82
2021/05/25 19:43:21;;;;;;;7.07;1.73;;;;;;;11.97;66.15;100269.20;3546709;81;34933;-82
2021/05/25 19:48:22;;;;;;;7.33;2.40;;;;;;;11.82;66.98;100286.29;3540585;81;98872;-82
2021/05/25 19:53:23;;;;;;;7.83;2.83;;;;;;;11.67;66.80;100279.13;3539869;81;35153;-81
2021/05/25 19:58:25;;;;;;;5.20;2.43;;;;;;;11.52;67.28;100288.51;3538388;81;98870;-83
2021/05/25 20:03:26;;;;;;;5.07;1.83;;;;;;;11.40;67.90;100285.28;3537053;81;35364;-83
2021/05/25 20:08:26;;;;;;;4.45;1.62;;;;;;;11.29;67.70;100289.95;3536438;81;98986;-84
2021/05/25 20:13:27;;;;;;;16.30;1.73;;;;;;;11.14;67.66;100289.65;3545334;81;27189;-82
2021/05/25 20:18:28;;;;;;;5.30;1.70;;;;;;;11.10;67.60;100299.84;3549559;81;99080;-85
2021/05/25 20:23:29;;;;;;;5.03;1.37;;;;;;;11.00;68.01;100307.44;3546278;81;26327;-84
2021/05/25 20:28:30;;;;;;;4.43;1.63;;;;;;;10.73;68.43;100298.59;3536266;81;99203;-84
2021/05/25 20:38:33;;;;;;;3.03;1.27;;;;;;;10.71;68.51;100315.28;3496060;81;98803;-87
2021/05/25 20:43:34;;;;;;;3.80;1.00;;;;;;;10.61;69.26;100316.77;3535679;81;26374;-85
2021/05/25 20:48:40;;;;;;;4.07;1.43;;;;;;;10.52;69.35;100319.04;3469939;83;98811;-84
2021/05/25 20:53:40;;;;;;;4.90;1.77;;;;;;;10.46;69.13;100319.18;3428117;85;34710;-84
2021/05/25 20:58:41;;;;;;;4.10;1.30;;;;;;;10.40;68.83;100314.39;3440744;84;98996;-83
2021/05/25 21:03:42;;;;;;;5.00;1.33;;;;;;;10.32;68.97;100311.37;3445639;84;25795;-82
2021/05/25 21:08:43;;;;;;;5.93;1.50;;;;;;;10.27;69.36;100304.84;3432855;84;99029;-85
2021/05/25 21:13:44;;;;;;;4.83;0.90;;;;;;;10.22;69.12;100314.80;3439878;84;32899;-87
2021/05/25 21:18:44;;;;;;;2.60;0.90;;;;;;;10.15;69.31;100311.38;3431454;84;99148;-89
2021/05/25 21:23:45;;;;;;;4.83;1.10;;;;;;;10.09;68.98;100315.64;3418732;84;32382;-90
2021/05/25 21:28:46;;;;;;;3.20;1.37;;;;;;;10.04;68.99;100305.58;3416069;86;98796;-87
2021/05/25 21:33:47;;;;;;;4.93;1.40;;;;;;;9.99;69.12;100316.88;3424053;86;27397;-86
2021/05/25 21:38:47;;;;;;;3.27;1.20;;;;;;;9.94;68.90;100312.52;3419252;85;98816;-87
2021/05/25 21:43:48;;;;;;;3.93;1.27;;;;;;;9.93;69.07;100321.13;3413828;85;26388;-87
2021/05/25 21:48:49;;;;;;;3.13;0.83;;;;;;;9.91;68.95;100318.75;3418537;85;98714;-89
2021/05/25 21:53:50;;;;;;;3.70;1.03;;;;;;;9.87;68.97;100326.16;3426045;86;25818;-87
2021/05/25 21:58:53;;;;;;;3.27;1.20;;;;;;;9.84;69.09;100320.05;3417181;85;98687;-87
2021/05/25 22:03:53;;;;;;;4.35;1.20;;;;;;;9.81;69.33;100323.53;3420553;86;26318;-88
2021/05/25 22:08:54;;;;;;;4.03;1.13;;;;;;;9.78;69.97;100338.04;3419757;86;98581;-88
2021/05/25 22:13:55;;;;;;;2.67;1.17;;;;;;;9.74;69.98;100324.83;3428669;84;25952;-88
2021/05/25 22:18:56;;;;;;;3.30;0.90;;;;;;;9.70;69.91;100330.08;3424280;85;98629;-89
2021/05/25 22:23:57;;;;;;;3.67;1.27;;;;;;;9.66;70.16;100323.73;3427875;86;26776;-88
2021/05/25 22:28:58;;;;;;;4.65;1.65;;;;;;;9.60;70.43;100334.84;3418359;86;98566;-90
2021/05/25 22:33:59;;;;;;;6.20;1.33;;;;;;;9.54;71.29;100340.46;3432617;85;26543;-88
2021/05/25 22:39:00;;;;;;;2.93;1.13;;;;;;;9.49;71.25;100330.56;3421520;85;98425;-87
2021/05/25 22:44:00;;;;;;;3.73;1.40;;;;;;;9.47;71.35;100335.66;3427270;86;33257;-90
2021/05/25 22:49:01;;;;;;;3.07;1.23;;;;;;;9.43;71.96;100333.42;3417827;85;98618;-88
2021/05/25 22:54:03;;;;;;;2.33;1.23;;;;;;;9.40;72.51;100342.43;3418066;86;33215;-90
2021/05/25 22:59:04;;;;;;;5.33;1.50;;;;;;;9.35;71.96;100334.51;3413044;85;98748;-88
2021/05/25 23:04:05;;;;;;;3.27;1.30;;;;;;;9.32;72.37;100333.86;3425220;86;33252;-88
2021/05/25 23:09:10;;;;;;;4.13;1.33;;;;;;;9.25;72.67;100329.64;3389349;86;98594;-87
2021/05/25 23:14:11;;;;;;;3.50;1.60;;;;;;;9.20;72.98;100334.08;3426663;86;25923;-86
2021/05/25 23:19:12;;;;;;;2.97;1.20;;;;;;;9.14;73.52;100334.76;3424774;85;98418;-87
2021/05/25 23:24:13;;;;;;;4.00;1.30;;;;;;;9.07;73.61;100335.46;3425235;86;33333;-88
2021/05/25 23:29:14;;;;;;;3.90;1.60;;;;;;;9.01;73.87;100341.06;3415470;85;98469;-88
2021/05/25 23:34:15;;;;;;;3.00;1.47;;;;;;;8.96;74.51;100337.25;3417068;86;33754;-88
2021/05/25 23:39:16;;;;;;;3.17;1.30;;;;;;;8.91;75.35;100339.50;3422504;86;98536;-89
2021/05/25 23:44:17;;;;;;;2.40;1.10;;;;;;;8.86;74.96;100346.66;3425054;86;33713;-88
2021/05/25 23:49:18;;;;;;;4.53;1.70;;;;;;;8.79;75.00;100344.59;3422518;85;98591;-88
2021/05/25 23:54:19;;;;;;;2.73;1.27;;;;;;;8.73;75.39;100337.05;3422244;86;33217;-87
2021/05/25 23:59:19;;;;;;;4.35;1.35;;;;;;;8.67;75.88;100333.80;3417352;85;98382;-90
